sensor_id;sensor_type;location;lat;lon;timestamp;temperature;humidity
72380;SHT30;60354;47.798;12.472;2023-03-14T00:02:16;12.22;63.81
72380;SHT30;60354;47.798;12.472;2023-03-14T00:04:42;12.15;64.81
72380;SHT30;60354;47.798;12.472;2023-03-14T00:07:07;12.02;65.38
72380;SHT30;60354;47.798;12.472;2023-03-14T00:09:35;11.91;66.29
72380;SHT30;60354;47.798;12.472;2023-03-14T00:12:00;11.86;67.33
72380;SHT30;60354;47.798;12.472;2023-03-14T00:14:28;11.78;67.93
72380;SHT30;60354;47.798;12.472;2023-03-14T00:16:54;11.77;68.35
72380;SHT30;60354;47.798;12.472;2023-03-14T00:19:19;11.67;68.32
72380;SHT30;60354;47.798;12.472;2023-03-14T00:21:44;11.66;68.10
72380;SHT30;60354;47.798;12.472;2023-03-14T00:24:10;11.62;67.59
72380;SHT30;60354;47.798;12.472;2023-03-14T00:26:35;11.56;67.65
72380;SHT30;60354;47.798;12.472;2023-03-14T00:29:01;11.49;67.73
72380;SHT30;60354;47.798;12.472;2023-03-14T00:31:26;11.44;67.86
72380;SHT30;60354;47.798;12.472;2023-03-14T00:33:53;11.36;68.74
72380;SHT30;60354;47.798;12.472;2023-03-14T00:36:19;11.32;68.91
72380;SHT30;60354;47.798;12.472;2023-03-14T00:38:47;11.30;69.52
72380;SHT30;60354;47.798;12.472;2023-03-14T00:41:15;11.22;69.76
72380;SHT30;60354;47.798;12.472;2023-03-14T00:43:41;11.06;70.25
72380;SHT30;60354;47.798;12.472;2023-03-14T00:46:07;10.99;70.42
72380;SHT30;60354;47.798;12.472;2023-03-14T00:48:33;10.89;70.98
72380;SHT30;60354;47.798;12.472;2023-03-14T00:51:00;10.78;71.19
72380;SHT30;60354;47.798;12.472;2023-03-14T00:53:25;10.72;71.67
72380;SHT30;60354;47.798;12.472;2023-03-14T00:55:51;10.68;71.82
72380;SHT30;60354;47.798;12.472;2023-03-14T00:58:17;10.58;72.36
72380;SHT30;60354;47.798;12.472;2023-03-14T01:00:44;10.53;72.64
72380;SHT30;60354;47.798;12.472;2023-03-14T01:03:11;10.54;72.39
72380;SHT30;60354;47.798;12.472;2023-03-14T01:05:37;10.53;72.25
72380;SHT30;60354;47.798;12.472;2023-03-14T01:08:03;10.50;72.37
72380;SHT30;60354;47.798;12.472;2023-03-14T01:10:30;10.48;72.26
72380;SHT30;60354;47.798;12.472;2023-03-14T01:12:57;10.50;72.27
72380;SHT30;60354;47.798;12.472;2023-03-14T01:15:22;10.44;72.71
72380;SHT30;60354;47.798;12.472;2023-03-14T01:17:48;10.36;72.91
72380;SHT30;60354;47.798;12.472;2023-03-14T01:20:16;10.36;72.76
72380;SHT30;60354;47.798;12.472;2023-03-14T01:22:43;10.23;73.70
72380;SHT30;60354;47.798;12.472;2023-03-14T01:25:11;10.12;74.08
72380;SHT30;60354;47.798;12.472;2023-03-14T01:27:40;10.12;74.00
72380;SHT30;60354;47.798;12.472;2023-03-14T01:30:06;10.09;74.27
72380;SHT30;60354;47.798;12.472;2023-03-14T01:32:33;10.05;74.34
72380;SHT30;60354;47.798;12.472;2023-03-14T01:34:59;10.06;74.40
72380;SHT30;60354;47.798;12.472;2023-03-14T01:37:25;10.00;74.78
72380;SHT30;60354;47.798;12.472;2023-03-14T01:39:50;9.99;74.60
72380;SHT30;60354;47.798;12.472;2023-03-14T01:42:18;10.06;74.27
72380;SHT30;60354;47.798;12.472;2023-03-14T01:47:16;10.09;74.25
72380;SHT30;60354;47.798;12.472;2023-03-14T01:49:43;10.06;74.38
72380;SHT30;60354;47.798;12.472;2023-03-14T01:52:14;10.03;74.66
72380;SHT30;60354;47.798;12.472;2023-03-14T01:54:43;9.97;75.03
72380;SHT30;60354;47.798;12.472;2023-03-14T01:57:27;9.97;75.02
72380;SHT30;60354;47.798;12.472;2023-03-14T01:59:58;9.99;74.92
72380;SHT30;60354;47.798;12.472;2023-03-14T02:02:26;9.99;75.31
72380;SHT30;60354;47.798;12.472;2023-03-14T02:04:54;9.90;75.82
72380;SHT30;60354;47.798;12.472;2023-03-14T02:07:45;9.85;76.26
72380;SHT30;60354;47.798;12.472;2023-03-14T02:10:21;9.81;76.32
72380;SHT30;60354;47.798;12.472;2023-03-14T02:12:48;9.85;76.04
72380;SHT30;60354;47.798;12.472;2023-03-14T02:15:32;9.86;76.07
72380;SHT30;60354;47.798;12.472;2023-03-14T02:18:03;9.89;75.96
72380;SHT30;60354;47.798;12.472;2023-03-14T02:20:57;9.93;76.06
72380;SHT30;60354;47.798;12.472;2023-03-14T02:26:09;9.83;76.72
72380;SHT30;60354;47.798;12.472;2023-03-14T02:28:36;9.82;76.80
72380;SHT30;60354;47.798;12.472;2023-03-14T02:31:02;9.85;76.93
72380;SHT30;60354;47.798;12.472;2023-03-14T02:33:31;9.83;76.78
72380;SHT30;60354;47.798;12.472;2023-03-14T02:35:59;9.87;76.70
72380;SHT30;60354;47.798;12.472;2023-03-14T02:38:50;9.85;76.96
72380;SHT30;60354;47.798;12.472;2023-03-14T02:41:18;9.92;77.76
72380;SHT30;60354;47.798;12.472;2023-03-14T02:43:51;9.89;78.36
72380;SHT30;60354;47.798;12.472;2023-03-14T02:46:18;9.90;79.11
72380;SHT30;60354;47.798;12.472;2023-03-14T02:49:12;9.96;79.73
72380;SHT30;60354;47.798;12.472;2023-03-14T02:51:40;9.89;81.38
72380;SHT30;60354;47.798;12.472;2023-03-14T02:54:06;9.83;83.16
72380;SHT30;60354;47.798;12.472;2023-03-14T02:56:32;9.74;83.65
72380;SHT30;60354;47.798;12.472;2023-03-14T02:59:04;9.68;84.20
72380;SHT30;60354;47.798;12.472;2023-03-14T03:01:39;9.58;85.16
72380;SHT30;60354;47.798;12.472;2023-03-14T03:04:05;9.52;85.65
72380;SHT30;60354;47.798;12.472;2023-03-14T03:06:30;9.46;86.05
72380;SHT30;60354;47.798;12.472;2023-03-14T03:08:56;9.44;86.36
72380;SHT30;60354;47.798;12.472;2023-03-14T03:11:22;9.44;86.60
72380;SHT30;60354;47.798;12.472;2023-03-14T03:13:47;9.39;86.89
72380;SHT30;60354;47.798;12.472;2023-03-14T03:16:13;9.38;87.17
72380;SHT30;60354;47.798;12.472;2023-03-14T03:18:40;9.35;87.84
72380;SHT30;60354;47.798;12.472;2023-03-14T03:21:06;9.30;87.79
72380;SHT30;60354;47.798;12.472;2023-03-14T03:23:34;9.23;88.33
72380;SHT30;60354;47.798;12.472;2023-03-14T03:25:59;9.23;88.27
72380;SHT30;60354;47.798;12.472;2023-03-14T03:28:25;9.18;88.27
72380;SHT30;60354;47.798;12.472;2023-03-14T03:30:51;9.14;88.80
72380;SHT30;60354;47.798;12.472;2023-03-14T03:33:17;9.20;88.54
72380;SHT30;60354;47.798;12.472;2023-03-14T03:35:46;9.18;87.98
72380;SHT30;60354;47.798;12.472;2023-03-14T03:38:19;9.21;87.79
72380;SHT30;60354;47.798;12.472;2023-03-14T03:40:47;9.24;88.13
72380;SHT30;60354;47.798;12.472;2023-03-14T03:43:13;9.27;87.69
72380;SHT30;60354;47.798;12.472;2023-03-14T03:45:42;9.31;87.35
72380;SHT30;60354;47.798;12.472;2023-03-14T03:48:07;9.30;87.78
72380;SHT30;60354;47.798;12.472;2023-03-14T03:50:33;9.34;87.39
72380;SHT30;60354;47.798;12.472;2023-03-14T03:52:58;9.36;87.30
72380;SHT30;60354;47.798;12.472;2023-03-14T03:55:24;9.27;87.18
72380;SHT30;60354;47.798;12.472;2023-03-14T03:57:51;9.23;87.84
72380;SHT30;60354;47.798;12.472;2023-03-14T04:00:16;9.18;88.02
72380;SHT30;60354;47.798;12.472;2023-03-14T04:02:42;9.20;87.70
72380;SHT30;60354;47.798;12.472;2023-03-14T04:05:11;9.23;87.29
72380;SHT30;60354;47.798;12.472;2023-03-14T04:07:41;9.23;87.39
72380;SHT30;60354;47.798;12.472;2023-03-14T04:10:07;9.17;87.17
72380;SHT30;60354;47.798;12.472;2023-03-14T04:12:37;9.10;87.12
72380;SHT30;60354;47.798;12.472;2023-03-14T04:15:17;9.03;84.57
72380;SHT30;60354;47.798;12.472;2023-03-14T04:17:46;9.04;84.10
72380;SHT30;60354;47.798;12.472;2023-03-14T04:20:13;9.03;83.06
72380;SHT30;60354;47.798;12.472;2023-03-14T04:22:40;9.04;82.94
72380;SHT30;60354;47.798;12.472;2023-03-14T04:25:06;9.05;82.29
72380;SHT30;60354;47.798;12.472;2023-03-14T04:27:36;9.05;83.48
72380;SHT30;60354;47.798;12.472;2023-03-14T04:30:07;9.04;82.79
72380;SHT30;60354;47.798;12.472;2023-03-14T04:32:55;9.00;83.90
72380;SHT30;60354;47.798;12.472;2023-03-14T04:35:26;8.99;83.55
72380;SHT30;60354;47.798;12.472;2023-03-14T04:37:59;9.00;84.13
72380;SHT30;60354;47.798;12.472;2023-03-14T04:40:25;8.96;84.15
72380;SHT30;60354;47.798;12.472;2023-03-14T04:42:54;9.03;82.40
72380;SHT30;60354;47.798;12.472;2023-03-14T04:45:20;8.99;82.11
72380;SHT30;60354;47.798;12.472;2023-03-14T04:47:46;8.96;84.12
72380;SHT30;60354;47.798;12.472;2023-03-14T04:50:16;8.93;82.67
72380;SHT30;60354;47.798;12.472;2023-03-14T04:52:41;8.86;84.41
72380;SHT30;60354;47.798;12.472;2023-03-14T04:55:07;8.84;84.96
72380;SHT30;60354;47.798;12.472;2023-03-14T04:57:33;8.66;86.09
72380;SHT30;60354;47.798;12.472;2023-03-14T04:59:59;8.53;87.58
72380;SHT30;60354;47.798;12.472;2023-03-14T05:02:44;8.46;87.52
72380;SHT30;60354;47.798;12.472;2023-03-14T05:05:30;8.48;87.39
72380;SHT30;60354;47.798;12.472;2023-03-14T05:08:04;8.49;86.65
72380;SHT30;60354;47.798;12.472;2023-03-14T05:10:55;8.45;86.81
72380;SHT30;60354;47.798;12.472;2023-03-14T05:13:40;8.48;87.00
72380;SHT30;60354;47.798;12.472;2023-03-14T05:16:26;8.48;86.58
72380;SHT30;60354;47.798;12.472;2023-03-14T05:19:11;8.52;85.88
72380;SHT30;60354;47.798;12.472;2023-03-14T05:21:56;8.45;87.18
72380;SHT30;60354;47.798;12.472;2023-03-14T05:24:33;8.36;87.98
72380;SHT30;60354;47.798;12.472;2023-03-14T05:27:35;8.36;87.23
72380;SHT30;60354;47.798;12.472;2023-03-14T05:30:19;8.32;87.51
72380;SHT30;60354;47.798;12.472;2023-03-14T05:33:04;8.31;87.53
72380;SHT30;60354;47.798;12.472;2023-03-14T05:35:49;8.28;87.22
72380;SHT30;60354;47.798;12.472;2023-03-14T05:38:49;8.26;87.46
72380;SHT30;60354;47.798;12.472;2023-03-14T05:41:24;8.26;87.21
72380;SHT30;60354;47.798;12.472;2023-03-14T05:44:09;8.22;87.32
72380;SHT30;60354;47.798;12.472;2023-03-14T05:46:42;8.24;87.54
72380;SHT30;60354;47.798;12.472;2023-03-14T05:49:30;8.24;87.41
72380;SHT30;60354;47.798;12.472;2023-03-14T05:52:28;8.22;87.16
72380;SHT30;60354;47.798;12.472;2023-03-14T05:55:01;8.18;87.23
72380;SHT30;60354;47.798;12.472;2023-03-14T05:57:54;8.16;87.12
72380;SHT30;60354;47.798;12.472;2023-03-14T06:00:38;8.16;87.25
72380;SHT30;60354;47.798;12.472;2023-03-14T06:03:17;8.11;87.19
72380;SHT30;60354;47.798;12.472;2023-03-14T06:05:46;8.11;87.10
72380;SHT30;60354;47.798;12.472;2023-03-14T06:08:11;8.09;87.27
72380;SHT30;60354;47.798;12.472;2023-03-14T06:10:37;8.06;87.46
72380;SHT30;60354;47.798;12.472;2023-03-14T06:13:04;7.94;87.68
72380;SHT30;60354;47.798;12.472;2023-03-14T06:15:32;7.94;87.90
72380;SHT30;60354;47.798;12.472;2023-03-14T06:17:58;7.97;86.64
72380;SHT30;60354;47.798;12.472;2023-03-14T06:20:25;7.94;87.15
72380;SHT30;60354;47.798;12.472;2023-03-14T06:22:51;7.98;87.31
72380;SHT30;60354;47.798;12.472;2023-03-14T06:25:17;7.99;87.30
72380;SHT30;60354;47.798;12.472;2023-03-14T06:27:45;7.95;87.71
72380;SHT30;60354;47.798;12.472;2023-03-14T06:30:11;7.94;87.68
72380;SHT30;60354;47.798;12.472;2023-03-14T06:32:36;7.93;87.32
72380;SHT30;60354;47.798;12.472;2023-03-14T06:35:09;7.85;87.63
72380;SHT30;60354;47.798;12.472;2023-03-14T06:37:39;7.91;87.32
72380;SHT30;60354;47.798;12.472;2023-03-14T06:40:05;7.88;87.78
72380;SHT30;60354;47.798;12.472;2023-03-14T06:42:51;7.90;87.65
72380;SHT30;60354;47.798;12.472;2023-03-14T06:45:19;7.88;87.63
72380;SHT30;60354;47.798;12.472;2023-03-14T06:47:45;7.88;87.87
72380;SHT30;60354;47.798;12.472;2023-03-14T06:50:11;7.81;87.67
72380;SHT30;60354;47.798;12.472;2023-03-14T06:52:37;7.77;88.16
72380;SHT30;60354;47.798;12.472;2023-03-14T06:55:07;7.77;88.22
72380;SHT30;60354;47.798;12.472;2023-03-14T06:57:33;7.77;88.48
72380;SHT30;60354;47.798;12.472;2023-03-14T06:59:59;7.75;88.73
72380;SHT30;60354;47.798;12.472;2023-03-14T07:02:25;7.75;88.28
72380;SHT30;60354;47.798;12.472;2023-03-14T07:04:50;7.78;88.20
72380;SHT30;60354;47.798;12.472;2023-03-14T07:07:16;7.77;88.36
72380;SHT30;60354;47.798;12.472;2023-03-14T07:09:42;7.74;88.44
72380;SHT30;60354;47.798;12.472;2023-03-14T07:12:08;7.77;88.47
72380;SHT30;60354;47.798;12.472;2023-03-14T07:14:34;7.75;87.75
72380;SHT30;60354;47.798;12.472;2023-03-14T07:16:59;7.77;87.72
72380;SHT30;60354;47.798;12.472;2023-03-14T07:19:25;7.83;87.02
72380;SHT30;60354;47.798;12.472;2023-03-14T07:21:51;7.81;87.25
72380;SHT30;60354;47.798;12.472;2023-03-14T07:24:21;7.87;86.20
72380;SHT30;60354;47.798;12.472;2023-03-14T07:26:48;7.97;84.86
72380;SHT30;60354;47.798;12.472;2023-03-14T07:29:14;8.05;84.41
72380;SHT30;60354;47.798;12.472;2023-03-14T07:31:40;8.05;86.06
72380;SHT30;60354;47.798;12.472;2023-03-14T07:34:06;8.06;84.75
72380;SHT30;60354;47.798;12.472;2023-03-14T07:36:35;8.04;86.30
72380;SHT30;60354;47.798;12.472;2023-03-14T07:39:02;8.02;85.93
72380;SHT30;60354;47.798;12.472;2023-03-14T07:41:45;8.02;86.43
72380;SHT30;60354;47.798;12.472;2023-03-14T07:44:26;8.02;87.28
72380;SHT30;60354;47.798;12.472;2023-03-14T07:46:52;7.99;87.99
72380;SHT30;60354;47.798;12.472;2023-03-14T07:49:18;7.93;88.43
72380;SHT30;60354;47.798;12.472;2023-03-14T07:51:43;7.88;87.91
72380;SHT30;60354;47.798;12.472;2023-03-14T07:54:10;7.88;87.41
72380;SHT30;60354;47.798;12.472;2023-03-14T07:56:35;7.88;87.64
72380;SHT30;60354;47.798;12.472;2023-03-14T07:59:01;7.84;88.59
72380;SHT30;60354;47.798;12.472;2023-03-14T08:01:26;7.87;88.99
72380;SHT30;60354;47.798;12.472;2023-03-14T08:03:52;7.87;88.57
72380;SHT30;60354;47.798;12.472;2023-03-14T08:06:17;7.91;88.05
72380;SHT30;60354;47.798;12.472;2023-03-14T08:08:43;7.84;88.94
72380;SHT30;60354;47.798;12.472;2023-03-14T08:11:08;7.83;88.82
72380;SHT30;60354;47.798;12.472;2023-03-14T08:13:35;7.81;88.44
72380;SHT30;60354;47.798;12.472;2023-03-14T08:16:00;7.80;88.90
72380;SHT30;60354;47.798;12.472;2023-03-14T08:18:26;7.84;88.96
72380;SHT30;60354;47.798;12.472;2023-03-14T08:20:51;7.83;88.73
72380;SHT30;60354;47.798;12.472;2023-03-14T08:23:17;7.85;88.19
72380;SHT30;60354;47.798;12.472;2023-03-14T08:25:42;7.87;87.62
72380;SHT30;60354;47.798;12.472;2023-03-14T08:28:08;7.83;88.84
72380;SHT30;60354;47.798;12.472;2023-03-14T08:30:34;7.83;88.27
72380;SHT30;60354;47.798;12.472;2023-03-14T08:32:59;7.85;89.01
72380;SHT30;60354;47.798;12.472;2023-03-14T08:35:26;7.81;89.01
72380;SHT30;60354;47.798;12.472;2023-03-14T08:37:51;7.78;88.94
72380;SHT30;60354;47.798;12.472;2023-03-14T08:40:17;7.81;88.85
72380;SHT30;60354;47.798;12.472;2023-03-14T08:42:45;7.78;88.87
72380;SHT30;60354;47.798;12.472;2023-03-14T08:45:12;7.77;88.15
72380;SHT30;60354;47.798;12.472;2023-03-14T08:47:39;7.73;88.65
72380;SHT30;60354;47.798;12.472;2023-03-14T08:50:06;7.69;87.29
72380;SHT30;60354;47.798;12.472;2023-03-14T08:52:32;7.69;85.99
72380;SHT30;60354;47.798;12.472;2023-03-14T08:54:59;7.78;83.24
72380;SHT30;60354;47.798;12.472;2023-03-14T08:57:25;7.75;83.45
72380;SHT30;60354;47.798;12.472;2023-03-14T08:59:54;7.74;83.59
72380;SHT30;60354;47.798;12.472;2023-03-14T09:02:21;7.71;83.71
72380;SHT30;60354;47.798;12.472;2023-03-14T09:04:47;7.74;82.29
72380;SHT30;60354;47.798;12.472;2023-03-14T09:07:12;7.67;84.23
72380;SHT30;60354;47.798;12.472;2023-03-14T09:09:38;7.66;84.13
72380;SHT30;60354;47.798;12.472;2023-03-14T09:12:03;7.59;85.75
72380;SHT30;60354;47.798;12.472;2023-03-14T09:14:30;7.56;87.26
72380;SHT30;60354;47.798;12.472;2023-03-14T09:16:56;7.52;88.52
72380;SHT30;60354;47.798;12.472;2023-03-14T09:19:21;7.54;85.14
72380;SHT30;60354;47.798;12.472;2023-03-14T09:21:47;7.52;86.55
72380;SHT30;60354;47.798;12.472;2023-03-14T09:24:12;7.53;85.42
72380;SHT30;60354;47.798;12.472;2023-03-14T09:26:38;7.60;85.40
72380;SHT30;60354;47.798;12.472;2023-03-14T09:29:03;7.60;83.99
72380;SHT30;60354;47.798;12.472;2023-03-14T09:31:29;7.59;84.60
72380;SHT30;60354;47.798;12.472;2023-03-14T09:33:55;7.56;86.43
72380;SHT30;60354;47.798;12.472;2023-03-14T09:36:20;7.59;84.83
72380;SHT30;60354;47.798;12.472;2023-03-14T09:38:46;7.56;85.56
72380;SHT30;60354;47.798;12.472;2023-03-14T09:41:25;7.57;83.05
72380;SHT30;60354;47.798;12.472;2023-03-14T09:44:00;7.62;84.17
72380;SHT30;60354;47.798;12.472;2023-03-14T09:46:29;7.64;84.33
72380;SHT30;60354;47.798;12.472;2023-03-14T09:48:54;7.56;85.33
72380;SHT30;60354;47.798;12.472;2023-03-14T09:51:20;7.52;85.22
72380;SHT30;60354;47.798;12.472;2023-03-14T09:53:49;7.52;85.20
72380;SHT30;60354;47.798;12.472;2023-03-14T09:56:23;7.52;85.11
72380;SHT30;60354;47.798;12.472;2023-03-14T09:58:56;7.46;85.89
72380;SHT30;60354;47.798;12.472;2023-03-14T10:01:27;7.44;84.68
72380;SHT30;60354;47.798;12.472;2023-03-14T10:04:01;7.40;85.84
72380;SHT30;60354;47.798;12.472;2023-03-14T10:06:29;7.33;86.46
72380;SHT30;60354;47.798;12.472;2023-03-14T10:08:55;7.24;87.09
72380;SHT30;60354;47.798;12.472;2023-03-14T10:11:22;7.33;86.65
72380;SHT30;60354;47.798;12.472;2023-03-14T10:16:15;7.26;87.23
72380;SHT30;60354;47.798;12.472;2023-03-14T10:18:45;7.23;87.25
72380;SHT30;60354;47.798;12.472;2023-03-14T10:21:21;7.16;87.34
72380;SHT30;60354;47.798;12.472;2023-03-14T10:23:49;7.16;86.86
72380;SHT30;60354;47.798;12.472;2023-03-14T10:26:23;7.23;87.38
72380;SHT30;60354;47.798;12.472;2023-03-14T10:28:54;7.19;87.37
72380;SHT30;60354;47.798;12.472;2023-03-14T10:31:26;7.16;87.25
72380;SHT30;60354;47.798;12.472;2023-03-14T10:34:22;7.12;87.43
72380;SHT30;60354;47.798;12.472;2023-03-14T10:36:58;7.11;87.90
72380;SHT30;60354;47.798;12.472;2023-03-14T10:42:05;6.95;87.43
72380;SHT30;60354;47.798;12.472;2023-03-14T10:44:33;6.96;87.78
72380;SHT30;60354;47.798;12.472;2023-03-14T10:47:01;6.95;87.67
72380;SHT30;60354;47.798;12.472;2023-03-14T10:49:33;6.98;87.39
72380;SHT30;60354;47.798;12.472;2023-03-14T10:52:14;7.01;87.55
72380;SHT30;60354;47.798;12.472;2023-03-14T10:54:40;6.96;87.29
72380;SHT30;60354;47.798;12.472;2023-03-14T10:57:05;6.95;87.31
72380;SHT30;60354;47.798;12.472;2023-03-14T10:59:39;6.85;87.75
72380;SHT30;60354;47.798;12.472;2023-03-14T11:05:25;6.81;87.78
72380;SHT30;60354;47.798;12.472;2023-03-14T11:07:47;6.70;86.82
72380;SHT30;60354;47.798;12.472;2023-03-14T11:29:16;6.38;85.66
72380;SHT30;60354;47.798;12.472;2023-03-14T11:31:44;6.34;85.66
72380;SHT30;60354;47.798;12.472;2023-03-14T11:34:22;6.37;84.83
72380;SHT30;60354;47.798;12.472;2023-03-14T11:36:54;6.36;85.07
72380;SHT30;60354;47.798;12.472;2023-03-14T11:39:22;6.43;85.45
72380;SHT30;60354;47.798;12.472;2023-03-14T11:41:52;6.51;85.47
72380;SHT30;60354;47.798;12.472;2023-03-14T11:47:01;6.68;85.16
72380;SHT30;60354;47.798;12.472;2023-03-14T11:49:45;6.77;84.20
72380;SHT30;60354;47.798;12.472;2023-03-14T11:52:27;6.82;84.33
72380;SHT30;60354;47.798;12.472;2023-03-14T11:58:02;7.11;83.67
72380;SHT30;60354;47.798;12.472;2023-03-14T12:00:30;7.23;82.83
72380;SHT30;60354;47.798;12.472;2023-03-14T12:10:49;7.95;81.89
72380;SHT30;60354;47.798;12.472;2023-03-14T12:13:16;8.05;82.22
72380;SHT30;60354;47.798;12.472;2023-03-14T12:15:54;8.26;82.43
72380;SHT30;60354;47.798;12.472;2023-03-14T12:20:54;8.79;82.36
72380;SHT30;60354;47.798;12.472;2023-03-14T12:23:20;8.86;79.61
72380;SHT30;60354;47.798;12.472;2023-03-14T12:25:46;8.88;80.41
72380;SHT30;60354;47.798;12.472;2023-03-14T12:28:20;8.97;80.49
72380;SHT30;60354;47.798;12.472;2023-03-14T12:30:46;9.07;80.01
72380;SHT30;60354;47.798;12.472;2023-03-14T12:33:19;9.14;80.45
72380;SHT30;60354;47.798;12.472;2023-03-14T12:35:47;9.07;78.18
72380;SHT30;60354;47.798;12.472;2023-03-14T12:43:41;9.15;79.06
72380;SHT30;60354;47.798;12.472;2023-03-14T12:48:55;9.23;78.44
72380;SHT30;60354;47.798;12.472;2023-03-14T12:51:42;9.27;78.11
72380;SHT30;60354;47.798;12.472;2023-03-14T12:54:46;9.36;78.08
72380;SHT30;60354;47.798;12.472;2023-03-14T12:57:28;9.35;77.49
72380;SHT30;60354;47.798;12.472;2023-03-14T13:00:02;9.39;77.71
72380;SHT30;60354;47.798;12.472;2023-03-14T13:02:42;9.39;76.90
72380;SHT30;60354;47.798;12.472;2023-03-14T13:05:12;9.41;77.36
72380;SHT30;60354;47.798;12.472;2023-03-14T13:18:10;9.38;77.12
72380;SHT30;60354;47.798;12.472;2023-03-14T13:23:30;9.36;77.52
72380;SHT30;60354;47.798;12.472;2023-03-14T13:25:57;9.31;77.25
72380;SHT30;60354;47.798;12.472;2023-03-14T13:28:24;9.27;77.39
72380;SHT30;60354;47.798;12.472;2023-03-14T13:30:55;9.30;77.60
72380;SHT30;60354;47.798;12.472;2023-03-14T13:33:22;9.28;77.76
72380;SHT30;60354;47.798;12.472;2023-03-14T13:35:50;9.23;78.57
72380;SHT30;60354;47.798;12.472;2023-03-14T13:38:24;9.14;78.25
72380;SHT30;60354;47.798;12.472;2023-03-14T13:40:51;9.03;78.50
72380;SHT30;60354;47.798;12.472;2023-03-14T13:43:39;9.00;79.57
72380;SHT30;60354;47.798;12.472;2023-03-14T13:46:16;9.07;78.73
72380;SHT30;60354;47.798;12.472;2023-03-14T13:48:48;9.03;78.77
72380;SHT30;60354;47.798;12.472;2023-03-14T13:51:16;9.00;77.90
72380;SHT30;60354;47.798;12.472;2023-03-14T13:53:54;8.97;78.01
72380;SHT30;60354;47.798;12.472;2023-03-14T13:56:21;8.94;77.93
72380;SHT30;60354;47.798;12.472;2023-03-14T13:58:48;8.94;78.64
72380;SHT30;60354;47.798;12.472;2023-03-14T14:01:23;8.86;79.22
72380;SHT30;60354;47.798;12.472;2023-03-14T14:03:55;8.80;79.82
72380;SHT30;60354;47.798;12.472;2023-03-14T14:06:32;8.72;80.90
72380;SHT30;60354;47.798;12.472;2023-03-14T14:09:24;8.67;80.37
72380;SHT30;60354;47.798;12.472;2023-03-14T14:12:03;8.77;80.28
72380;SHT30;60354;47.798;12.472;2023-03-14T14:14:34;8.90;80.79
72380;SHT30;60354;47.798;12.472;2023-03-14T14:17:05;8.96;81.49
72380;SHT30;60354;47.798;12.472;2023-03-14T14:19:34;8.97;82.05
72380;SHT30;60354;47.798;12.472;2023-03-14T14:22:01;8.91;81.70
72380;SHT30;60354;47.798;12.472;2023-03-14T14:24:31;8.84;81.93
72380;SHT30;60354;47.798;12.472;2023-03-14T14:32:44;8.83;82.36
72380;SHT30;60354;47.798;12.472;2023-03-14T14:35:24;8.77;82.52
72380;SHT30;60354;47.798;12.472;2023-03-14T14:37:51;8.67;82.32
72380;SHT30;60354;47.798;12.472;2023-03-14T14:42:42;8.70;82.20
72380;SHT30;60354;47.798;12.472;2023-03-14T14:45:14;8.69;83.17
72380;SHT30;60354;47.798;12.472;2023-03-14T14:50:57;8.96;81.93
72380;SHT30;60354;47.798;12.472;2023-03-14T14:56:28;9.08;81.04
72380;SHT30;60354;47.798;12.472;2023-03-14T14:59:01;9.01;82.30
72380;SHT30;60354;47.798;12.472;2023-03-14T15:01:36;9.01;80.77
72380;SHT30;60354;47.798;12.472;2023-03-14T15:04:11;9.00;81.30
72380;SHT30;60354;47.798;12.472;2023-03-14T15:06:49;9.01;80.88
72380;SHT30;60354;47.798;12.472;2023-03-14T15:09:15;8.99;80.13
72380;SHT30;60354;47.798;12.472;2023-03-14T15:11:46;8.94;82.42
72380;SHT30;60354;47.798;12.472;2023-03-14T15:14:12;8.90;81.68
72380;SHT30;60354;47.798;12.472;2023-03-14T15:16:38;8.84;82.11
72380;SHT30;60354;47.798;12.472;2023-03-14T15:19:25;8.72;83.34
72380;SHT30;60354;47.798;12.472;2023-03-14T15:21:54;8.53;82.23
72380;SHT30;60354;47.798;12.472;2023-03-14T15:24:20;8.29;83.45
72380;SHT30;60354;47.798;12.472;2023-03-14T15:26:45;8.16;83.70
72380;SHT30;60354;47.798;12.472;2023-03-14T15:29:11;8.06;84.32
72380;SHT30;60354;47.798;12.472;2023-03-14T15:31:41;7.91;84.34
72380;SHT30;60354;47.798;12.472;2023-03-14T15:34:08;7.67;85.97
72380;SHT30;60354;47.798;12.472;2023-03-14T15:36:34;7.59;87.01
72380;SHT30;60354;47.798;12.472;2023-03-14T15:39:01;7.57;86.02
72380;SHT30;60354;47.798;12.472;2023-03-14T15:41:27;7.54;84.32
72380;SHT30;60354;47.798;12.472;2023-03-14T15:43:54;7.53;84.54
72380;SHT30;60354;47.798;12.472;2023-03-14T15:46:20;7.50;84.58
72380;SHT30;60354;47.798;12.472;2023-03-14T15:48:48;7.49;83.84
72380;SHT30;60354;47.798;12.472;2023-03-14T15:51:13;7.42;84.43
72380;SHT30;60354;47.798;12.472;2023-03-14T15:53:39;7.42;83.92
72380;SHT30;60354;47.798;12.472;2023-03-14T15:56:07;7.40;81.85
72380;SHT30;60354;47.798;12.472;2023-03-14T15:58:33;7.46;82.19
72380;SHT30;60354;47.798;12.472;2023-03-14T16:01:02;7.52;80.81
72380;SHT30;60354;47.798;12.472;2023-03-14T16:03:28;7.47;82.60
72380;SHT30;60354;47.798;12.472;2023-03-14T16:05:54;7.56;79.39
72380;SHT30;60354;47.798;12.472;2023-03-14T16:08:22;7.70;80.21
72380;SHT30;60354;47.798;12.472;2023-03-14T16:10:47;7.62;79.70
72380;SHT30;60354;47.798;12.472;2023-03-14T16:13:13;7.70;78.01
72380;SHT30;60354;47.798;12.472;2023-03-14T16:15:39;7.67;80.17
72380;SHT30;60354;47.798;12.472;2023-03-14T16:18:04;7.66;78.81
72380;SHT30;60354;47.798;12.472;2023-03-14T16:20:30;7.67;79.75
72380;SHT30;60354;47.798;12.472;2023-03-14T16:22:55;7.66;80.74
72380;SHT30;60354;47.798;12.472;2023-03-14T16:25:21;7.60;81.98
72380;SHT30;60354;47.798;12.472;2023-03-14T16:27:47;7.47;81.59
72380;SHT30;60354;47.798;12.472;2023-03-14T16:30:13;7.43;81.13
72380;SHT30;60354;47.798;12.472;2023-03-14T16:32:38;7.32;83.06
72380;SHT30;60354;47.798;12.472;2023-03-14T16:35:05;7.15;84.70
72380;SHT30;60354;47.798;12.472;2023-03-14T16:37:30;6.78;84.85
72380;SHT30;60354;47.798;12.472;2023-03-14T16:39:56;6.61;84.38
72380;SHT30;60354;47.798;12.472;2023-03-14T16:42:22;6.45;84.26
72380;SHT30;60354;47.798;12.472;2023-03-14T16:44:47;6.38;84.73
72380;SHT30;60354;47.798;12.472;2023-03-14T16:47:13;6.44;85.39
72380;SHT30;60354;47.798;12.472;2023-03-14T16:49:38;6.40;85.21
72380;SHT30;60354;47.798;12.472;2023-03-14T16:52:05;6.54;83.70
72380;SHT30;60354;47.798;12.472;2023-03-14T16:54:31;6.55;83.63
72380;SHT30;60354;47.798;12.472;2023-03-14T16:56:57;6.63;83.18
72380;SHT30;60354;47.798;12.472;2023-03-14T16:59:22;6.64;81.99
72380;SHT30;60354;47.798;12.472;2023-03-14T17:01:50;6.68;82.93
72380;SHT30;60354;47.798;12.472;2023-03-14T17:04:15;6.71;78.59
72380;SHT30;60354;47.798;12.472;2023-03-14T17:06:41;6.74;79.80
72380;SHT30;60354;47.798;12.472;2023-03-14T17:09:08;6.68;78.94
72380;SHT30;60354;47.798;12.472;2023-03-14T17:11:33;6.63;78.87